sensor_id;sensor_type;location;lat;lon;timestamp;P1;durP1;ratioP1;P2;durP2;ratioP2
77022;SDS011;65952;51.440;-2.054;2023-01-23T00:00:28;20.48;;;9.82;;
77022;SDS011;65952;51.440;-2.054;2023-01-23T00:02:53;17.67;;;9.95;;
77022;SDS011;65952;51.440;-2.054;2023-01-23T00:05:20;18.83;;;9.05;;
77022;SDS011;65952;51.440;-2.054;2023-01-23T00:07:46;20.73;;;9.63;;
77022;SDS011;65952;51.440;-2.054;2023-01-23T00:10:11;16.38;;;9.32;;
77022;SDS011;65952;51.440;-2.054;2023-01-23T00:12:39;23.02;;;10.23;;
77022;SDS011;65952;51.440;-2.054;2023-01-23T00:15:07;21.75;;;9.68;;
77022;SDS011;65952;51.440;-2.054;2023-01-23T00:17:33;18.42;;;9.02;;
77022;SDS011;65952;51.440;-2.054;2023-01-23T00:19:58;18.40;;;10.25;;
77022;SDS011;65952;51.440;-2.054;2023-01-23T00:22:24;17.67;;;9.57;;
77022;SDS011;65952;51.440;-2.054;2023-01-23T00:24:50;15.75;;;9.05;;
77022;SDS011;65952;51.440;-2.054;2023-01-23T00:27:15;17.85;;;9.80;;
77022;SDS011;65952;51.440;-2.054;2023-01-23T00:29:41;15.73;;;9.07;;
77022;SDS011;65952;51.440;-2.054;2023-01-23T00:32:06;20.48;;;9.43;;
77022;SDS011;65952;51.440;-2.054;2023-01-23T00:34:32;17.33;;;9.30;;
77022;SDS011;65952;51.440;-2.054;2023-01-23T00:36:57;16.13;;;8.85;;
77022;SDS011;65952;51.440;-2.054;2023-01-23T00:39:22;19.58;;;8.93;;
77022;SDS011;65952;51.440;-2.054;2023-01-23T00:41:48;18.25;;;9.65;;
77022;SDS011;65952;51.440;-2.054;2023-01-23T00:44:14;14.90;;;8.02;;
77022;SDS011;65952;51.440;-2.054;2023-01-23T00:46:41;16.80;;;8.93;;
77022;SDS011;65952;51.440;-2.054;2023-01-23T00:49:06;16.30;;;8.05;;
77022;SDS011;65952;51.440;-2.054;2023-01-23T00:51:32;15.60;;;8.85;;
77022;SDS011;65952;51.440;-2.054;2023-01-23T00:53:58;20.58;;;9.15;;
77022;SDS011;65952;51.440;-2.054;2023-01-23T00:56:24;14.15;;;7.82;;
77022;SDS011;65952;51.440;-2.054;2023-01-23T00:58:49;14.27;;;7.28;;
77022;SDS011;65952;51.440;-2.054;2023-01-23T01:01:15;12.23;;;7.10;;
77022;SDS011;65952;51.440;-2.054;2023-01-23T01:03:42;15.68;;;7.80;;
77022;SDS011;65952;51.440;-2.054;2023-01-23T01:06:08;12.57;;;7.43;;
77022;SDS011;65952;51.440;-2.054;2023-01-23T01:08:34;16.23;;;7.60;;
77022;SDS011;65952;51.440;-2.054;2023-01-23T01:11:00;13.50;;;7.03;;
77022;SDS011;65952;51.440;-2.054;2023-01-23T01:13:25;12.15;;;7.30;;
77022;SDS011;65952;51.440;-2.054;2023-01-23T01:15:52;12.13;;;7.00;;
77022;SDS011;65952;51.440;-2.054;2023-01-23T01:18:17;13.98;;;7.30;;
77022;SDS011;65952;51.440;-2.054;2023-01-23T01:20:44;12.40;;;6.68;;
77022;SDS011;65952;51.440;-2.054;2023-01-23T01:23:09;11.88;;;6.18;;
77022;SDS011;65952;51.440;-2.054;2023-01-23T01:25:35;10.23;;;6.07;;
77022;SDS011;65952;51.440;-2.054;2023-01-23T01:28:01;11.75;;;6.35;;
77022;SDS011;65952;51.440;-2.054;2023-01-23T01:30:27;14.52;;;6.45;;
77022;SDS011;65952;51.440;-2.054;2023-01-23T01:32:53;13.35;;;5.70;;
77022;SDS011;65952;51.440;-2.054;2023-01-23T01:35:19;12.75;;;6.13;;
77022;SDS011;65952;51.440;-2.054;2023-01-23T01:37:45;13.38;;;6.43;;
77022;SDS011;65952;51.440;-2.054;2023-01-23T01:40:16;11.88;;;6.57;;
77022;SDS011;65952;51.440;-2.054;2023-01-23T01:42:53;13.90;;;6.15;;
77022;SDS011;65952;51.440;-2.054;2023-01-23T01:48:25;10.65;;;6.05;;
77022;SDS011;65952;51.440;-2.054;2023-01-23T01:50:54;12.18;;;6.10;;
77022;SDS011;65952;51.440;-2.054;2023-01-23T01:53:22;14.70;;;6.55;;
77022;SDS011;65952;51.440;-2.054;2023-01-23T01:55:51;10.10;;;6.03;;
77022;SDS011;65952;51.440;-2.054;2023-01-23T01:58:17;11.20;;;6.03;;
77022;SDS011;65952;51.440;-2.054;2023-01-23T02:00:43;13.82;;;6.80;;
77022;SDS011;65952;51.440;-2.054;2023-01-23T02:03:08;15.20;;;7.22;;
77022;SDS011;65952;51.440;-2.054;2023-01-23T02:05:35;13.30;;;6.80;;
77022;SDS011;65952;51.440;-2.054;2023-01-23T02:08:10;13.40;;;6.95;;
77022;SDS011;65952;51.440;-2.054;2023-01-23T02:10:50;10.48;;;5.72;;
77022;SDS011;65952;51.440;-2.054;2023-01-23T02:13:24;13.13;;;6.80;;
77022;SDS011;65952;51.440;-2.054;2023-01-23T02:16:01;15.50;;;7.05;;
77022;SDS011;65952;51.440;-2.054;2023-01-23T02:18:28;12.57;;;7.40;;
77022;SDS011;65952;51.440;-2.054;2023-01-23T02:20:56;18.00;;;7.85;;
77022;SDS011;65952;51.440;-2.054;2023-01-23T02:23:35;12.93;;;7.32;;
77022;SDS011;65952;51.440;-2.054;2023-01-23T02:26:42;16.52;;;7.40;;
77022;SDS011;65952;51.440;-2.054;2023-01-23T02:29:10;14.23;;;7.50;;
77022;SDS011;65952;51.440;-2.054;2023-01-23T02:31:36;13.68;;;7.40;;
77022;SDS011;65952;51.440;-2.054;2023-01-23T02:34:02;15.10;;;8.23;;
77022;SDS011;65952;51.440;-2.054;2023-01-23T02:36:29;13.27;;;7.95;;
77022;SDS011;65952;51.440;-2.054;2023-01-23T02:39:07;16.10;;;7.95;;
77022;SDS011;65952;51.440;-2.054;2023-01-23T02:41:36;15.95;;;7.43;;
77022;SDS011;65952;51.440;-2.054;2023-01-23T02:44:23;14.48;;;7.78;;
77022;SDS011;65952;51.440;-2.054;2023-01-23T02:46:52;14.65;;;7.53;;
77022;SDS011;65952;51.440;-2.054;2023-01-23T02:49:19;14.77;;;8.38;;
77022;SDS011;65952;51.440;-2.054;2023-01-23T02:51:46;14.90;;;7.32;;
77022;SDS011;65952;51.440;-2.054;2023-01-23T02:54:12;16.58;;;7.50;;
77022;SDS011;65952;51.440;-2.054;2023-01-23T02:56:37;14.68;;;7.30;;
77022;SDS011;65952;51.440;-2.054;2023-01-23T02:59:03;13.75;;;6.85;;
77022;SDS011;65952;51.440;-2.054;2023-01-23T03:01:46;13.60;;;7.32;;
77022;SDS011;65952;51.440;-2.054;2023-01-23T03:04:12;14.93;;;6.60;;
77022;SDS011;65952;51.440;-2.054;2023-01-23T03:06:37;15.35;;;7.80;;
77022;SDS011;65952;51.440;-2.054;2023-01-23T03:09:13;12.90;;;7.18;;
77022;SDS011;65952;51.440;-2.054;2023-01-23T03:11:49;11.77;;;6.65;;
77022;SDS011;65952;51.440;-2.054;2023-01-23T03:14:15;13.70;;;7.63;;
77022;SDS011;65952;51.440;-2.054;2023-01-23T03:16:42;15.75;;;7.18;;
77022;SDS011;65952;51.440;-2.054;2023-01-23T03:19:11;17.30;;;7.35;;
77022;SDS011;65952;51.440;-2.054;2023-01-23T03:21:37;13.85;;;7.65;;
77022;SDS011;65952;51.440;-2.054;2023-01-23T03:24:05;13.57;;;7.30;;
77022;SDS011;65952;51.440;-2.054;2023-01-23T03:26:41;14.27;;;7.47;;
77022;SDS011;65952;51.440;-2.054;2023-01-23T03:29:13;16.48;;;8.20;;
77022;SDS011;65952;51.440;-2.054;2023-01-23T03:31:59;15.25;;;7.63;;
77022;SDS011;65952;51.440;-2.054;2023-01-23T03:34:24;16.92;;;8.35;;
77022;SDS011;65952;51.440;-2.054;2023-01-23T03:36:49;15.40;;;7.88;;
77022;SDS011;65952;51.440;-2.054;2023-01-23T03:39:15;17.10;;;8.02;;
77022;SDS011;65952;51.440;-2.054;2023-01-23T03:41:59;15.65;;;7.97;;
77022;SDS011;65952;51.440;-2.054;2023-01-23T03:44:24;15.80;;;8.15;;
77022;SDS011;65952;51.440;-2.054;2023-01-23T03:46:50;15.60;;;7.93;;
77022;SDS011;65952;51.440;-2.054;2023-01-23T03:49:16;16.95;;;8.05;;
77022;SDS011;65952;51.440;-2.054;2023-01-23T03:51:42;16.50;;;8.45;;
77022;SDS011;65952;51.440;-2.054;2023-01-23T03:54:08;18.70;;;9.00;;
77022;SDS011;65952;51.440;-2.054;2023-01-23T03:56:34;20.50;;;8.13;;
77022;SDS011;65952;51.440;-2.054;2023-01-23T03:58:59;17.70;;;8.43;;
77022;SDS011;65952;51.440;-2.054;2023-01-23T04:01:25;18.30;;;8.43;;
77022;SDS011;65952;51.440;-2.054;2023-01-23T04:03:51;16.90;;;8.13;;
77022;SDS011;65952;51.440;-2.054;2023-01-23T04:06:17;14.68;;;7.82;;
77022;SDS011;65952;51.440;-2.054;2023-01-23T04:08:43;17.92;;;9.23;;
77022;SDS011;65952;51.440;-2.054;2023-01-23T04:11:09;13.82;;;8.10;;
77022;SDS011;65952;51.440;-2.054;2023-01-23T04:13:35;18.58;;;8.98;;
77022;SDS011;65952;51.440;-2.054;2023-01-23T04:16:00;16.58;;;8.55;;
77022;SDS011;65952;51.440;-2.054;2023-01-23T04:18:26;15.38;;;8.00;;
77022;SDS011;65952;51.440;-2.054;2023-01-23T04:20:52;16.45;;;8.88;;
77022;SDS011;65952;51.440;-2.054;2023-01-23T04:23:18;16.23;;;8.40;;
77022;SDS011;65952;51.440;-2.054;2023-01-23T04:25:44;18.42;;;9.38;;
77022;SDS011;65952;51.440;-2.054;2023-01-23T04:28:10;17.17;;;9.55;;
77022;SDS011;65952;51.440;-2.054;2023-01-23T04:30:35;16.13;;;8.88;;
77022;SDS011;65952;51.440;-2.054;2023-01-23T04:33:00;16.05;;;8.45;;
77022;SDS011;65952;51.440;-2.054;2023-01-23T04:35:26;17.42;;;8.50;;
77022;SDS011;65952;51.440;-2.054;2023-01-23T04:37:51;16.45;;;8.48;;
77022;SDS011;65952;51.440;-2.054;2023-01-23T04:40:17;16.60;;;8.95;;
77022;SDS011;65952;51.440;-2.054;2023-01-23T04:42:42;19.15;;;9.38;;
77022;SDS011;65952;51.440;-2.054;2023-01-23T04:45:08;16.35;;;8.85;;
77022;SDS011;65952;51.440;-2.054;2023-01-23T04:47:34;17.48;;;8.73;;
77022;SDS011;65952;51.440;-2.054;2023-01-23T04:49:59;15.20;;;8.52;;
77022;SDS011;65952;51.440;-2.054;2023-01-23T04:52:25;16.92;;;8.73;;
77022;SDS011;65952;51.440;-2.054;2023-01-23T04:54:50;17.90;;;7.85;;
77022;SDS011;65952;51.440;-2.054;2023-01-23T04:57:16;16.05;;;8.32;;
77022;SDS011;65952;51.440;-2.054;2023-01-23T04:59:41;15.65;;;7.45;;
77022;SDS011;65952;51.440;-2.054;2023-01-23T05:02:06;15.55;;;8.48;;
77022;SDS011;65952;51.440;-2.054;2023-01-23T05:04:32;15.75;;;7.90;;
77022;SDS011;65952;51.440;-2.054;2023-01-23T05:06:57;16.15;;;8.07;;
77022;SDS011;65952;51.440;-2.054;2023-01-23T05:09:23;14.63;;;7.72;;
77022;SDS011;65952;51.440;-2.054;2023-01-23T05:11:48;15.20;;;8.07;;
77022;SDS011;65952;51.440;-2.054;2023-01-23T05:14:13;16.48;;;8.27;;
77022;SDS011;65952;51.440;-2.054;2023-01-23T05:16:39;14.55;;;7.70;;
77022;SDS011;65952;51.440;-2.054;2023-01-23T05:19:04;12.27;;;7.50;;
77022;SDS011;65952;51.440;-2.054;2023-01-23T05:21:30;17.35;;;7.88;;
77022;SDS011;65952;51.440;-2.054;2023-01-23T05:23:55;15.07;;;7.55;;
77022;SDS011;65952;51.440;-2.054;2023-01-23T05:26:20;12.35;;;7.07;;
77022;SDS011;65952;51.440;-2.054;2023-01-23T05:28:46;14.93;;;7.03;;
77022;SDS011;65952;51.440;-2.054;2023-01-23T05:31:11;12.93;;;7.47;;
77022;SDS011;65952;51.440;-2.054;2023-01-23T05:33:37;13.07;;;6.57;;
77022;SDS011;65952;51.440;-2.054;2023-01-23T05:36:04;13.52;;;7.18;;
77022;SDS011;65952;51.440;-2.054;2023-01-23T05:38:30;15.13;;;7.25;;
77022;SDS011;65952;51.440;-2.054;2023-01-23T05:40:55;13.82;;;6.97;;
77022;SDS011;65952;51.440;-2.054;2023-01-23T05:43:21;15.30;;;7.32;;
77022;SDS011;65952;51.440;-2.054;2023-01-23T05:45:46;15.23;;;7.13;;
77022;SDS011;65952;51.440;-2.054;2023-01-23T05:48:12;14.60;;;7.95;;
77022;SDS011;65952;51.440;-2.054;2023-01-23T05:50:37;15.32;;;7.53;;
77022;SDS011;65952;51.440;-2.054;2023-01-23T05:53:03;13.70;;;7.90;;
77022;SDS011;65952;51.440;-2.054;2023-01-23T05:55:28;15.52;;;8.02;;
77022;SDS011;65952;51.440;-2.054;2023-01-23T05:57:54;13.57;;;7.15;;
77022;SDS011;65952;51.440;-2.054;2023-01-23T06:00:19;15.45;;;7.53;;
77022;SDS011;65952;51.440;-2.054;2023-01-23T06:02:45;14.05;;;7.28;;
77022;SDS011;65952;51.440;-2.054;2023-01-23T06:05:11;12.68;;;7.18;;
77022;SDS011;65952;51.440;-2.054;2023-01-23T06:07:37;13.13;;;7.15;;
77022;SDS011;65952;51.440;-2.054;2023-01-23T06:10:03;13.88;;;7.38;;
77022;SDS011;65952;51.440;-2.054;2023-01-23T06:12:29;14.57;;;8.02;;
77022;SDS011;65952;51.440;-2.054;2023-01-23T06:14:55;14.50;;;8.15;;
77022;SDS011;65952;51.440;-2.054;2023-01-23T06:17:20;14.50;;;7.85;;
77022;SDS011;65952;51.440;-2.054;2023-01-23T06:19:46;14.98;;;7.63;;
77022;SDS011;65952;51.440;-2.054;2023-01-23T06:22:12;16.88;;;8.63;;
77022;SDS011;65952;51.440;-2.054;2023-01-23T06:24:37;15.95;;;8.70;;
77022;SDS011;65952;51.440;-2.054;2023-01-23T06:27:03;16.15;;;8.38;;
77022;SDS011;65952;51.440;-2.054;2023-01-23T06:29:32;16.13;;;8.25;;
77022;SDS011;65952;51.440;-2.054;2023-01-23T06:32:01;18.40;;;9.15;;
77022;SDS011;65952;51.440;-2.054;2023-01-23T06:34:27;15.73;;;8.57;;
77022;SDS011;65952;51.440;-2.054;2023-01-23T06:36:52;16.10;;;8.48;;
77022;SDS011;65952;51.440;-2.054;2023-01-23T06:39:17;17.75;;;9.07;;
77022;SDS011;65952;51.440;-2.054;2023-01-23T06:41:43;17.10;;;8.57;;
77022;SDS011;65952;51.440;-2.054;2023-01-23T06:44:08;15.15;;;8.27;;
77022;SDS011;65952;51.440;-2.054;2023-01-23T06:46:34;14.88;;;8.10;;
77022;SDS011;65952;51.440;-2.054;2023-01-23T06:49:00;17.63;;;9.20;;
77022;SDS011;65952;51.440;-2.054;2023-01-23T06:51:25;17.52;;;9.50;;
77022;SDS011;65952;51.440;-2.054;2023-01-23T06:53:51;18.23;;;8.57;;
77022;SDS011;65952;51.440;-2.054;2023-01-23T06:56:16;17.90;;;9.05;;
77022;SDS011;65952;51.440;-2.054;2023-01-23T06:58:43;15.55;;;9.25;;
77022;SDS011;65952;51.440;-2.054;2023-01-23T07:01:14;15.30;;;8.63;;
77022;SDS011;65952;51.440;-2.054;2023-01-23T07:03:41;16.38;;;8.90;;
77022;SDS011;65952;51.440;-2.054;2023-01-23T07:06:09;17.08;;;8.98;;
77022;SDS011;65952;51.440;-2.054;2023-01-23T07:08:36;16.50;;;9.32;;
77022;SDS011;65952;51.440;-2.054;2023-01-23T07:11:02;18.58;;;10.10;;
77022;SDS011;65952;51.440;-2.054;2023-01-23T07:13:27;18.60;;;10.02;;
77022;SDS011;65952;51.440;-2.054;2023-01-23T07:15:53;18.30;;;10.50;;
77022;SDS011;65952;51.440;-2.054;2023-01-23T07:18:18;24.33;;;12.32;;
77022;SDS011;65952;51.440;-2.054;2023-01-23T07:20:44;22.25;;;12.27;;
77022;SDS011;65952;51.440;-2.054;2023-01-23T07:23:10;22.05;;;11.35;;
77022;SDS011;65952;51.440;-2.054;2023-01-23T07:25:36;19.85;;;10.55;;
77022;SDS011;65952;51.440;-2.054;2023-01-23T07:28:02;18.02;;;9.52;;
77022;SDS011;65952;51.440;-2.054;2023-01-23T07:30:27;28.88;;;10.02;;
77022;SDS011;65952;51.440;-2.054;2023-01-23T07:32:53;22.73;;;10.32;;
77022;SDS011;65952;51.440;-2.054;2023-01-23T07:35:19;15.80;;;9.52;;
77022;SDS011;65952;51.440;-2.054;2023-01-23T07:37:45;16.50;;;9.13;;
77022;SDS011;65952;51.440;-2.054;2023-01-23T07:40:11;18.75;;;8.63;;
77022;SDS011;65952;51.440;-2.054;2023-01-23T07:42:37;14.27;;;8.07;;
77022;SDS011;65952;51.440;-2.054;2023-01-23T07:45:04;17.70;;;7.47;;
77022;SDS011;65952;51.440;-2.054;2023-01-23T07:47:30;16.13;;;7.72;;
77022;SDS011;65952;51.440;-2.054;2023-01-23T07:49:56;14.63;;;8.00;;
77022;SDS011;65952;51.440;-2.054;2023-01-23T07:52:22;12.98;;;7.13;;
77022;SDS011;65952;51.440;-2.054;2023-01-23T07:54:48;13.38;;;7.15;;
77022;SDS011;65952;51.440;-2.054;2023-01-23T07:57:13;11.98;;;7.47;;
77022;SDS011;65952;51.440;-2.054;2023-01-23T07:59:39;15.32;;;7.50;;
77022;SDS011;65952;51.440;-2.054;2023-01-23T08:02:04;12.85;;;7.25;;
77022;SDS011;65952;51.440;-2.054;2023-01-23T08:04:29;14.38;;;7.75;;
77022;SDS011;65952;51.440;-2.054;2023-01-23T08:06:55;14.52;;;7.68;;
77022;SDS011;65952;51.440;-2.054;2023-01-23T08:09:20;14.35;;;7.40;;
77022;SDS011;65952;51.440;-2.054;2023-01-23T08:11:46;16.58;;;9.25;;
77022;SDS011;65952;51.440;-2.054;2023-01-23T08:14:11;23.67;;;9.73;;
77022;SDS011;65952;51.440;-2.054;2023-01-23T08:16:36;20.45;;;10.63;;
77022;SDS011;65952;51.440;-2.054;2023-01-23T08:19:05;19.15;;;10.10;;
77022;SDS011;65952;51.440;-2.054;2023-01-23T08:21:32;21.13;;;10.35;;
77022;SDS011;65952;51.440;-2.054;2023-01-23T08:23:59;18.40;;;10.80;;
77022;SDS011;65952;51.440;-2.054;2023-01-23T08:26:25;18.58;;;10.18;;
77022;SDS011;65952;51.440;-2.054;2023-01-23T08:28:51;18.70;;;11.60;;
77022;SDS011;65952;51.440;-2.054;2023-01-23T08:31:16;22.13;;;11.43;;
77022;SDS011;65952;51.440;-2.054;2023-01-23T08:33:42;20.55;;;10.73;;
77022;SDS011;65952;51.440;-2.054;2023-01-23T08:36:07;20.90;;;11.27;;
77022;SDS011;65952;51.440;-2.054;2023-01-23T08:38:35;21.70;;;11.32;;
77022;SDS011;65952;51.440;-2.054;2023-01-23T08:41:01;23.08;;;11.65;;
77022;SDS011;65952;51.440;-2.054;2023-01-23T08:43:27;19.80;;;10.23;;
77022;SDS011;65952;51.440;-2.054;2023-01-23T08:45:53;23.60;;;11.38;;
77022;SDS011;65952;51.440;-2.054;2023-01-23T08:48:21;24.90;;;11.30;;
77022;SDS011;65952;51.440;-2.054;2023-01-23T08:50:48;20.25;;;10.98;;
77022;SDS011;65952;51.440;-2.054;2023-01-23T08:53:14;22.30;;;10.48;;
77022;SDS011;65952;51.440;-2.054;2023-01-23T08:55:40;17.35;;;9.85;;
77022;SDS011;65952;51.440;-2.054;2023-01-23T08:58:06;18.40;;;9.80;;
77022;SDS011;65952;51.440;-2.054;2023-01-23T09:00:33;20.15;;;10.70;;
77022;SDS011;65952;51.440;-2.054;2023-01-23T09:03:02;16.35;;;10.00;;
77022;SDS011;65952;51.440;-2.054;2023-01-23T09:05:28;17.42;;;9.13;;
77022;SDS011;65952;51.440;-2.054;2023-01-23T09:07:55;19.15;;;9.60;;
77022;SDS011;65952;51.440;-2.054;2023-01-23T09:10:22;25.63;;;10.20;;
77022;SDS011;65952;51.440;-2.054;2023-01-23T09:12:51;18.52;;;9.50;;
77022;SDS011;65952;51.440;-2.054;2023-01-23T09:15:17;19.40;;;9.23;;
77022;SDS011;65952;51.440;-2.054;2023-01-23T09:17:43;16.27;;;8.77;;
77022;SDS011;65952;51.440;-2.054;2023-01-23T09:20:09;16.05;;;8.93;;
77022;SDS011;65952;51.440;-2.054;2023-01-23T09:22:35;16.98;;;9.60;;
77022;SDS011;65952;51.440;-2.054;2023-01-23T09:25:01;14.90;;;9.25;;
77022;SDS011;65952;51.440;-2.054;2023-01-23T09:27:27;14.52;;;8.52;;
77022;SDS011;65952;51.440;-2.054;2023-01-23T09:29:52;15.55;;;8.77;;
77022;SDS011;65952;51.440;-2.054;2023-01-23T09:32:18;15.57;;;9.00;;
77022;SDS011;65952;51.440;-2.054;2023-01-23T09:34:44;15.73;;;8.30;;
77022;SDS011;65952;51.440;-2.054;2023-01-23T09:37:12;17.80;;;8.60;;
77022;SDS011;65952;51.440;-2.054;2023-01-23T09:39:38;19.02;;;9.10;;
77022;SDS011;65952;51.440;-2.054;2023-01-23T09:42:04;17.33;;;9.20;;
77022;SDS011;65952;51.440;-2.054;2023-01-23T09:44:41;14.90;;;8.20;;
77022;SDS011;65952;51.440;-2.054;2023-01-23T09:50:03;14.43;;;8.38;;
77022;SDS011;65952;51.440;-2.054;2023-01-23T09:52:43;16.67;;;8.90;;
77022;SDS011;65952;51.440;-2.054;2023-01-23T09:55:14;11.73;;;7.53;;
77022;SDS011;65952;51.440;-2.054;2023-01-23T09:57:53;16.23;;;8.48;;
77022;SDS011;65952;51.440;-2.054;2023-01-23T10:00:28;18.05;;;8.95;;
77022;SDS011;65952;51.440;-2.054;2023-01-23T10:02:56;14.57;;;8.48;;
77022;SDS011;65952;51.440;-2.054;2023-01-23T10:11:07;15.48;;;9.32;;
77022;SDS011;65952;51.440;-2.054;2023-01-23T10:19:09;15.20;;;8.27;;
77022;SDS011;65952;51.440;-2.054;2023-01-23T10:22:00;12.45;;;6.95;;
77022;SDS011;65952;51.440;-2.054;2023-01-23T10:32:47;13.13;;;7.30;;
77022;SDS011;65952;51.440;-2.054;2023-01-23T10:35:33;13.07;;;7.43;;
77022;SDS011;65952;51.440;-2.054;2023-01-23T10:41:15;10.60;;;6.90;;
77022;SDS011;65952;51.440;-2.054;2023-01-23T10:43:46;12.60;;;7.30;;
77022;SDS011;65952;51.440;-2.054;2023-01-23T10:46:16;12.88;;;7.97;;
77022;SDS011;65952;51.440;-2.054;2023-01-23T10:49:02;12.02;;;7.72;;
77022;SDS011;65952;51.440;-2.054;2023-01-23T10:51:29;13.88;;;7.55;;
77022;SDS011;65952;51.440;-2.054;2023-01-23T11:02:19;13.17;;;5.90;;
77022;SDS011;65952;51.440;-2.054;2023-01-23T11:04:50;18.55;;;7.90;;
77022;SDS011;65952;51.440;-2.054;2023-01-23T11:07:28;23.48;;;10.07;;
77022;SDS011;65952;51.440;-2.054;2023-01-23T11:12:34;16.50;;;10.40;;
77022;SDS011;65952;51.440;-2.054;2023-01-23T11:15:21;17.08;;;9.65;;
77022;SDS011;65952;51.440;-2.054;2023-01-23T11:17:47;16.23;;;9.18;;
77022;SDS011;65952;51.440;-2.054;2023-01-23T11:23:34;16.23;;;10.87;;
77022;SDS011;65952;51.440;-2.054;2023-01-23T11:36:26;15.68;;;9.35;;
77022;SDS011;65952;51.440;-2.054;2023-01-23T11:38:56;13.85;;;8.50;;
77022;SDS011;65952;51.440;-2.054;2023-01-23T11:43:53;13.38;;;8.50;;
77022;SDS011;65952;51.440;-2.054;2023-01-23T11:46:26;14.68;;;8.88;;
77022;SDS011;65952;51.440;-2.054;2023-01-23T11:57:38;19.08;;;11.38;;
77022;SDS011;65952;51.440;-2.054;2023-01-23T12:19:09;17.27;;;9.57;;
77022;SDS011;65952;51.440;-2.054;2023-01-23T12:21:55;15.98;;;9.68;;
77022;SDS011;65952;51.440;-2.054;2023-01-23T12:24:33;16.05;;;9.20;;
77022;SDS011;65952;51.440;-2.054;2023-01-23T12:43:51;17.08;;;9.95;;
77022;SDS011;65952;51.440;-2.054;2023-01-23T12:46:22;19.05;;;10.40;;
77022;SDS011;65952;51.440;-2.054;2023-01-23T12:48:55;16.25;;;9.55;;
77022;SDS011;65952;51.440;-2.054;2023-01-23T12:51:41;17.58;;;9.40;;
77022;SDS011;65952;51.440;-2.054;2023-01-23T12:54:11;13.27;;;8.65;;
77022;SDS011;65952;51.440;-2.054;2023-01-23T12:56:41;17.53;;;9.03;;
77022;SDS011;65952;51.440;-2.054;2023-01-23T12:59:13;8.60;;;5.20;;
77022;SDS011;65952;51.440;-2.054;2023-01-23T13:01:59;7.07;;;4.15;;
77022;SDS011;65952;51.440;-2.054;2023-01-23T13:07:21;7.82;;;4.70;;
77022;SDS011;65952;51.440;-2.054;2023-01-23T13:12:39;7.38;;;4.70;;
77022;SDS011;65952;51.440;-2.054;2023-01-23T13:23:17;7.88;;;4.63;;
77022;SDS011;65952;51.440;-2.054;2023-01-23T13:25:48;7.65;;;4.65;;
77022;SDS011;65952;51.440;-2.054;2023-01-23T13:31:35;8.13;;;4.03;;
77022;SDS011;65952;51.440;-2.054;2023-01-23T13:34:02;8.23;;;4.50;;
77022;SDS011;65952;51.440;-2.054;2023-01-23T13:36:52;7.97;;;4.00;;
77022;SDS011;65952;51.440;-2.054;2023-01-23T13:39:28;9.27;;;5.03;;
77022;SDS011;65952;51.440;-2.054;2023-01-23T13:50:44;9.38;;;4.38;;
77022;SDS011;65952;51.440;-2.054;2023-01-23T13:56:05;6.95;;;3.90;;
77022;SDS011;65952;51.440;-2.054;2023-01-23T13:59:02;6.13;;;3.60;;
77022;SDS011;65952;51.440;-2.054;2023-01-23T14:01:35;6.50;;;3.72;;
77022;SDS011;65952;51.440;-2.054;2023-01-23T14:04:27;6.82;;;3.63;;
77022;SDS011;65952;51.440;-2.054;2023-01-23T14:07:29;8.40;;;3.95;;
77022;SDS011;65952;51.440;-2.054;2023-01-23T14:12:39;8.18;;;4.05;;
77022;SDS011;65952;51.440;-2.054;2023-01-23T14:15:17;7.70;;;4.20;;
77022;SDS011;65952;51.440;-2.054;2023-01-23T14:18:16;7.50;;;4.45;;
77022;SDS011;65952;51.440;-2.054;2023-01-23T14:20:46;6.85;;;4.65;;
77022;SDS011;65952;51.440;-2.054;2023-01-23T14:23:55;8.93;;;4.38;;
77022;SDS011;65952;51.440;-2.054;2023-01-23T14:26:03;8.43;;;4.40;;
77022;SDS011;65952;51.440;-2.054;2023-01-23T14:28:30;9.70;;;4.80;;
77022;SDS011;65952;51.440;-2.054;2023-01-23T14:30:57;9.48;;;4.50;;
77022;SDS011;65952;51.440;-2.054;2023-01-23T14:33:25;9.52;;;5.63;;
77022;SDS011;65952;51.440;-2.054;2023-01-23T14:35:51;8.10;;;4.68;;
77022;SDS011;65952;51.440;-2.054;2023-01-23T14:38:28;13.23;;;6.13;;
77022;SDS011;65952;51.440;-2.054;2023-01-23T14:40:57;10.70;;;6.28;;
77022;SDS011;65952;51.440;-2.054;2023-01-23T14:43:24;13.25;;;6.13;;
77022;SDS011;65952;51.440;-2.054;2023-01-23T14:45:59;11.02;;;6.10;;
77022;SDS011;65952;51.440;-2.054;2023-01-23T14:48:27;9.52;;;5.68;;
77022;SDS011;65952;51.440;-2.054;2023-01-23T14:51:00;9.75;;;5.80;;
77022;SDS011;65952;51.440;-2.054;2023-01-23T14:53:28;10.60;;;6.35;;
77022;SDS011;65952;51.440;-2.054;2023-01-23T14:55:54;11.75;;;5.68;;
77022;SDS011;65952;51.440;-2.054;2023-01-23T14:58:23;7.80;;;5.38;;
77022;SDS011;65952;51.440;-2.054;2023-01-23T15:00:49;10.32;;;5.28;;
77022;SDS011;65952;51.440;-2.054;2023-01-23T15:03:32;9.48;;;5.30;;
77022;SDS011;65952;51.440;-2.054;2023-01-23T15:06:02;9.73;;;5.53;;
77022;SDS011;65952;51.440;-2.054;2023-01-23T15:08:32;10.45;;;6.07;;
77022;SDS011;65952;51.440;-2.054;2023-01-23T15:10:59;10.27;;;6.00;;
77022;SDS011;65952;51.440;-2.054;2023-01-23T15:13:31;9.55;;;5.13;;
77022;SDS011;65952;51.440;-2.054;2023-01-23T15:16:04;11.35;;;5.55;;
77022;SDS011;65952;51.440;-2.054;2023-01-23T15:18:36;8.67;;;5.40;;
77022;SDS011;65952;51.440;-2.054;2023-01-23T15:21:05;10.82;;;5.82;;
77022;SDS011;65952;51.440;-2.054;2023-01-23T15:31:03;10.82;;;5.22;;
77022;SDS011;65952;51.440;-2.054;2023-01-23T15:33:30;11.35;;;5.90;;
77022;SDS011;65952;51.440;-2.054;2023-01-23T15:36:14;9.45;;;5.28;;
77022;SDS011;65952;51.440;-2.054;2023-01-23T15:38:52;13.98;;;6.07;;
77022;SDS011;65952;51.440;-2.054;2023-01-23T15:41:19;11.00;;;5.72;;
77022;SDS011;65952;51.440;-2.054;2023-01-23T15:43:45;11.00;;;5.72;;
77022;SDS011;65952;51.440;-2.054;2023-01-23T15:46:11;8.40;;;5.07;;
77022;SDS011;65952;51.440;-2.054;2023-01-23T15:48:36;9.82;;;5.57;;
77022;SDS011;65952;51.440;-2.054;2023-01-23T15:51:02;9.15;;;4.75;;
77022;SDS011;65952;51.440;-2.054;2023-01-23T15:53:28;10.27;;;5.63;;
77022;SDS011;65952;51.440;-2.054;2023-01-23T15:55:54;9.20;;;5.50;;
77022;SDS011;65952;51.440;-2.054;2023-01-23T15:58:19;12.52;;;5.65;;
77022;SDS011;65952;51.440;-2.054;2023-01-23T16:00:45;10.57;;;5.45;;
77022;SDS011;65952;51.440;-2.054;2023-01-23T16:03:10;11.15;;;6.32;;
77022;SDS011;65952;51.440;-2.054;2023-01-23T16:05:39;11.95;;;6.30;;
77022;SDS011;65952;51.440;-2.054;2023-01-23T16:08:10;11.13;;;6.20;;
77022;SDS011;65952;51.440;-2.054;2023-01-23T16:10:43;10.50;;;6.32;;
77022;SDS011;65952;51.440;-2.054;2023-01-23T16:13:09;9.77;;;7.03;;
77022;SDS011;65952;51.440;-2.054;2023-01-23T16:15:37;12.52;;;6.55;;
77022;SDS011;65952;51.440;-2.054;2023-01-23T16:18:03;13.23;;;6.70;;
77022;SDS011;65952;51.440;-2.054;2023-01-23T16:20:33;10.40;;;6.38;;
77022;SDS011;65952;51.440;-2.054;2023-01-23T16:23:03;15.52;;;7.03;;
77022;SDS011;65952;51.440;-2.054;2023-01-23T16:25:50;11.82;;;6.70;;
77022;SDS011;65952;51.440;-2.054;2023-01-23T16:28:20;9.77;;;6.03;;
77022;SDS011;65952;51.440;-2.054;2023-01-23T16:30:47;16.92;;;8.35;;
77022;SDS011;65952;51.440;-2.054;2023-01-23T16:33:14;22.25;;;9.82;;
77022;SDS011;65952;51.440;-2.054;2023-01-23T16:35:40;33.72;;;14.02;;
77022;SDS011;65952;51.440;-2.054;2023-01-23T16:38:06;25.63;;;12.20;;
77022;SDS011;65952;51.440;-2.054;2023-01-23T16:40:32;13.75;;;7.68;;
77022;SDS011;65952;51.440;-2.054;2023-01-23T16:42:58;12.60;;;7.40;;
77022;SDS011;65952;51.440;-2.054;2023-01-23T16:45:25;13.25;;;7.03;;
77022;SDS011;65952;51.440;-2.054;2023-01-23T16:47:52;13.73;;;7.53;;